createdAt,value
2023-05-21T00:00:29.082Z,0.00
2023-05-21T00:01:29.067Z,0.00
2023-05-21T00:02:29.143Z,0.00
2023-05-21T00:03:29.124Z,0.00
2023-05-21T00:04:29.070Z,0.00
2023-05-21T00:05:29.057Z,0.00
2023-05-21T00:06:29.127Z,0.00
2023-05-21T00:07:29.062Z,0.00
2023-05-21T00:08:29.024Z,0.00
2023-05-21T00:09:29.027Z,0.00
2023-05-21T00:10:29.058Z,0.00
2023-05-21T00:11:28.990Z,0.00
2023-05-21T00:12:29.015Z,0.00
2023-05-21T00:13:28.997Z,0.00
2023-05-21T00:14:28.973Z,0.00
2023-05-21T00:15:28.975Z,0.00
2023-05-21T00:16:29.058Z,0.00
2023-05-21T00:17:28.989Z,0.00
2023-05-21T00:18:28.957Z,0.00
2023-05-21T00:19:29.006Z,0.00
2023-05-21T00:20:28.934Z,0.00
2023-05-21T00:21:28.933Z,0.00
2023-05-21T00:22:28.924Z,0.00
2023-05-21T00:23:28.921Z,0.00
2023-05-21T00:24:28.901Z,0.00
2023-05-21T00:25:28.904Z,0.00
2023-05-21T00:26:28.914Z,0.00
2023-05-21T00:27:28.905Z,0.00
2023-05-21T00:28:28.880Z,0.00
2023-05-21T00:29:28.872Z,0.00
2023-05-21T00:30:28.886Z,0.00
2023-05-21T00:31:28.907Z,0.00
2023-05-21T00:32:28.878Z,0.00
2023-05-21T00:33:28.839Z,0.00
2023-05-21T00:34:28.833Z,0.00
2023-05-21T00:35:28.833Z,0.00
2023-05-21T00:36:28.848Z,0.00
2023-05-21T00:37:28.819Z,0.00
2023-05-21T00:38:28.815Z,0.00
2023-05-21T00:39:28.805Z,0.00
2023-05-21T00:40:28.810Z,0.00
2023-05-21T00:41:28.802Z,0.00
2023-05-21T00:42:28.790Z,0.00
2023-05-21T00:43:28.800Z,0.00
2023-05-21T00:44:28.764Z,0.00
2023-05-21T00:45:28.776Z,0.00
2023-05-21T00:46:28.799Z,0.00
2023-05-21T00:48:28.749Z,0.00
2023-05-21T00:49:28.732Z,0.00
2023-05-21T00:50:28.735Z,0.00
2023-05-21T00:51:28.726Z,0.00
2023-05-21T00:52:28.711Z,0.00
2023-05-21T00:53:28.702Z,0.00
2023-05-21T00:54:28.725Z,0.00
2023-05-21T00:55:28.696Z,0.00
2023-05-21T00:56:28.694Z,0.00
2023-05-21T00:57:28.687Z,0.00
2023-05-21T00:58:28.670Z,0.00
2023-05-21T00:59:28.667Z,0.00
2023-05-21T01:00:28.655Z,0.00
2023-05-21T01:01:28.743Z,0.00
2023-05-21T01:02:28.740Z,0.00
2023-05-21T01:03:28.747Z,0.00
2023-05-21T01:04:28.638Z,0.00
2023-05-21T01:05:28.637Z,0.00
2023-05-21T01:06:28.610Z,0.00
2023-05-21T01:07:28.647Z,0.00
2023-05-21T01:08:28.610Z,0.00
2023-05-21T01:09:28.611Z,0.00
2023-05-21T01:10:28.612Z,0.00
2023-05-21T01:11:28.588Z,0.00
2023-05-21T01:12:28.575Z,0.00
2023-05-21T01:13:28.579Z,0.00
2023-05-21T01:14:28.571Z,0.00
2023-05-21T01:15:28.566Z,0.00
2023-05-21T01:16:28.566Z,0.00
2023-05-21T01:17:28.587Z,0.00
2023-05-21T01:18:28.568Z,0.00
2023-05-21T01:19:28.557Z,0.00
2023-05-21T01:20:28.574Z,0.00
2023-05-21T01:21:28.517Z,0.00
2023-05-21T01:22:28.543Z,0.00
2023-05-21T01:23:28.502Z,0.00
2023-05-21T01:24:28.497Z,0.00
2023-05-21T01:25:28.509Z,0.00
2023-05-21T01:26:28.497Z,0.00
2023-05-21T01:27:28.490Z,0.00
2023-05-21T01:28:28.480Z,0.00
2023-05-21T01:29:28.474Z,0.00
2023-05-21T01:30:28.465Z,0.00
2023-05-21T01:31:28.498Z,0.00
2023-05-21T01:32:28.473Z,0.00
2023-05-21T01:33:28.518Z,0.00
2023-05-21T01:34:28.427Z,0.00
2023-05-21T01:35:28.436Z,0.00
2023-05-21T01:36:28.443Z,0.00
2023-05-21T01:37:28.427Z,0.00
2023-05-21T01:38:28.415Z,0.00
2023-05-21T01:39:28.410Z,0.00
2023-05-21T01:40:28.400Z,0.00
2023-05-21T01:41:28.436Z,0.00
2023-05-21T01:42:28.389Z,0.00
2023-05-21T01:43:28.388Z,0.00
2023-05-21T01:44:28.381Z,0.00
2023-05-21T01:45:28.365Z,0.00
2023-05-21T01:46:28.442Z,0.00
2023-05-21T01:47:28.368Z,0.00
2023-05-21T01:48:28.359Z,0.00
2023-05-21T01:49:28.349Z,0.00
2023-05-21T01:50:28.357Z,0.00
2023-05-21T01:51:28.336Z,0.00
2023-05-21T01:52:29.329Z,0.00
2023-05-21T01:53:28.317Z,0.00
2023-05-21T01:54:28.305Z,0.00
2023-05-21T01:55:28.314Z,0.00
2023-05-21T01:56:28.301Z,0.00
2023-05-21T01:57:28.277Z,0.00
2023-05-21T01:58:28.289Z,0.00
2023-05-21T01:59:28.273Z,0.00
2023-05-21T02:00:28.284Z,0.00
2023-05-21T02:01:28.285Z,0.00
2023-05-21T02:02:28.308Z,0.00
2023-05-21T02:03:28.351Z,0.00
2023-05-21T02:04:28.234Z,0.00
2023-05-21T02:05:28.229Z,0.00
2023-05-21T02:06:28.217Z,0.00
2023-05-21T02:07:28.215Z,0.00
2023-05-21T02:08:28.225Z,0.00
2023-05-21T02:09:28.199Z,0.00
2023-05-21T02:10:28.244Z,0.00
2023-05-21T02:11:28.199Z,0.00
2023-05-21T02:12:28.190Z,0.00
2023-05-21T02:13:28.191Z,0.00
2023-05-21T02:14:28.206Z,0.00
2023-05-21T02:15:28.167Z,0.00
2023-05-21T02:16:28.176Z,0.00
2023-05-21T02:17:28.171Z,0.00
2023-05-21T02:18:28.166Z,0.00
2023-05-21T02:19:28.261Z,0.00
2023-05-21T02:20:28.134Z,0.00
2023-05-21T02:21:28.138Z,0.00
2023-05-21T02:22:28.133Z,0.00
2023-05-21T02:23:28.150Z,0.00
2023-05-21T02:24:28.114Z,0.00
2023-05-21T02:25:28.104Z,0.00
2023-05-21T02:26:28.105Z,0.00
2023-05-21T02:27:28.096Z,0.00
2023-05-21T02:28:28.083Z,0.00
2023-05-21T02:29:28.103Z,0.00
2023-05-21T02:30:28.098Z,0.00
2023-05-21T02:31:28.056Z,0.00
2023-05-21T02:32:28.088Z,0.00
2023-05-21T02:33:28.075Z,0.00
2023-05-21T02:34:28.108Z,0.00
2023-05-21T02:35:28.054Z,0.00
2023-05-21T02:36:28.033Z,0.00
2023-05-21T02:37:28.024Z,0.00
2023-05-21T02:38:28.024Z,0.00
2023-05-21T02:39:28.009Z,0.00
2023-05-21T02:40:28.023Z,0.00
2023-05-21T02:41:28.009Z,0.00
2023-05-21T02:42:27.992Z,0.00
2023-05-21T02:43:27.991Z,0.00
2023-05-21T02:44:28.002Z,0.00
2023-05-21T02:45:27.979Z,0.00
2023-05-21T02:46:28.014Z,0.00
2023-05-21T02:47:27.987Z,0.00
2023-05-21T02:48:27.971Z,0.00
2023-05-21T02:49:27.987Z,0.00
2023-05-21T02:50:27.936Z,0.00
2023-05-21T02:51:27.956Z,0.00
2023-05-21T02:52:27.921Z,0.00
2023-05-21T02:53:28.924Z,0.00
2023-05-21T02:54:27.934Z,0.00
2023-05-21T02:55:27.914Z,0.00
2023-05-21T02:56:27.913Z,0.00
2023-05-21T02:57:27.903Z,0.00
2023-05-21T02:58:27.894Z,0.00
2023-05-21T02:59:27.878Z,0.00
2023-05-21T03:00:27.873Z,0.00
2023-05-21T03:01:27.932Z,0.00
2023-05-21T03:02:27.909Z,0.00
2023-05-21T03:03:28.077Z,0.00
2023-05-21T03:04:27.850Z,0.00
2023-05-21T03:05:27.866Z,0.00
2023-05-21T03:06:27.839Z,0.00
2023-05-21T03:07:27.835Z,0.00
2023-05-21T03:08:27.847Z,0.00
2023-05-21T03:09:27.825Z,0.00
2023-05-21T03:10:27.806Z,0.00
2023-05-21T03:11:27.806Z,0.00
2023-05-21T03:12:27.812Z,0.00
2023-05-21T03:13:27.823Z,0.00
2023-05-21T03:14:27.784Z,0.00
2023-05-21T03:15:27.821Z,0.00
2023-05-21T03:16:27.856Z,0.00
2023-05-21T03:17:27.776Z,0.00
2023-05-21T03:18:27.795Z,0.00
2023-05-21T03:19:27.824Z,0.00
2023-05-21T03:20:27.767Z,0.00
2023-05-21T03:21:27.754Z,0.00
2023-05-21T03:22:27.729Z,0.00
2023-05-21T03:23:27.726Z,0.00
2023-05-21T03:24:27.729Z,0.00
2023-05-21T03:25:27.712Z,0.00
2023-05-21T03:26:27.721Z,0.00
2023-05-21T03:27:27.710Z,0.00
2023-05-21T03:28:27.712Z,0.00
2023-05-21T03:29:27.689Z,0.00
2023-05-21T03:30:27.696Z,0.00
2023-05-21T03:31:27.738Z,5.62
2023-05-21T03:32:27.706Z,5.62
2023-05-21T03:33:27.678Z,5.62
2023-05-21T03:34:27.661Z,5.62
2023-05-21T03:35:27.704Z,5.62
2023-05-21T03:36:27.649Z,5.62
2023-05-21T03:37:27.651Z,5.62
2023-05-21T03:38:27.654Z,5.62
2023-05-21T03:39:27.639Z,5.62
2023-05-21T03:40:27.655Z,5.62
2023-05-21T03:41:27.621Z,5.62
2023-05-21T03:42:27.628Z,11.25
2023-05-21T03:43:27.613Z,11.25
2023-05-21T03:44:27.599Z,11.25
2023-05-21T03:45:27.628Z,11.25
2023-05-21T03:46:27.612Z,11.25
2023-05-21T03:47:28.622Z,11.25
2023-05-21T03:48:27.595Z,11.25
2023-05-21T03:49:27.571Z,11.25
2023-05-21T03:50:27.572Z,16.88
2023-05-21T03:51:27.599Z,16.88
2023-05-21T03:52:27.602Z,16.88
2023-05-21T03:53:27.546Z,16.88
2023-05-21T03:54:27.550Z,16.88
2023-05-21T03:55:27.574Z,16.88
2023-05-21T03:56:27.558Z,16.88
2023-05-21T03:57:27.523Z,16.88
2023-05-21T03:58:27.513Z,22.50
2023-05-21T03:59:27.522Z,22.50
2023-05-21T04:00:27.501Z,22.50
2023-05-21T04:01:27.534Z,22.50
2023-05-21T04:02:27.692Z,22.50
2023-05-21T04:03:27.646Z,22.50
2023-05-21T04:04:27.519Z,22.50
2023-05-21T04:05:27.472Z,22.50
2023-05-21T04:06:27.496Z,28.12
2023-05-21T04:07:27.467Z,28.12
2023-05-21T04:08:27.444Z,28.12
2023-05-21T04:09:27.451Z,28.12
2023-05-21T04:10:27.457Z,28.12
2023-05-21T04:11:27.432Z,28.12
2023-05-21T04:12:27.448Z,28.12
2023-05-21T04:13:27.412Z,28.12
2023-05-21T04:14:27.415Z,33.75
2023-05-21T04:15:27.406Z,33.75
2023-05-21T04:16:27.428Z,33.75
2023-05-21T04:17:27.491Z,33.75
2023-05-21T04:18:27.390Z,33.75
2023-05-21T04:19:27.417Z,33.75
2023-05-21T04:20:27.387Z,39.38
2023-05-21T04:21:27.375Z,39.38
2023-05-21T04:22:27.368Z,39.38
2023-05-21T04:23:27.380Z,39.38
2023-05-21T04:24:27.342Z,39.38
2023-05-21T04:25:28.335Z,45.00
2023-05-21T04:26:27.332Z,45.00
2023-05-21T04:27:27.341Z,45.00
2023-05-21T04:28:27.335Z,45.00
2023-05-21T04:29:27.302Z,45.00
2023-05-21T04:30:27.317Z,45.00
2023-05-21T04:31:27.332Z,50.62
2023-05-21T04:32:27.336Z,50.62
2023-05-21T04:33:27.310Z,50.62
2023-05-21T04:34:27.287Z,50.62
2023-05-21T04:35:27.287Z,50.62
2023-05-21T04:36:27.255Z,56.25
2023-05-21T04:37:27.266Z,56.25
2023-05-21T04:38:27.242Z,56.25
2023-05-21T04:39:27.235Z,56.25
2023-05-21T04:40:27.240Z,56.25
2023-05-21T04:41:27.225Z,61.88
2023-05-21T04:42:27.227Z,61.88
2023-05-21T04:43:27.239Z,61.88
2023-05-21T04:44:27.220Z,61.88
2023-05-21T04:45:27.186Z,67.50
2023-05-21T04:46:27.235Z,67.50
2023-05-21T04:47:27.234Z,67.50
2023-05-21T04:48:27.296Z,67.50
2023-05-21T04:49:27.168Z,67.50
2023-05-21T04:50:27.193Z,67.50
2023-05-21T04:51:27.154Z,67.50
2023-05-21T04:52:27.145Z,73.12
2023-05-21T04:53:27.132Z,73.12
2023-05-21T04:54:27.135Z,73.12
2023-05-21T04:55:27.147Z,73.12
2023-05-21T04:56:27.140Z,78.75
2023-05-21T04:57:27.108Z,78.75
2023-05-21T04:58:27.107Z,78.75
2023-05-21T04:59:27.098Z,84.38
2023-05-21T05:00:27.092Z,84.38
2023-05-21T05:01:27.325Z,84.38
2023-05-21T05:02:27.114Z,90.00
2023-05-21T05:03:27.148Z,90.00
2023-05-21T05:04:27.066Z,90.00
2023-05-21T05:05:27.059Z,95.62
2023-05-21T05:06:27.073Z,95.62
2023-05-21T05:07:27.035Z,95.62
2023-05-21T05:08:27.032Z,101.25
2023-05-21T05:09:27.034Z,101.25
2023-05-21T05:10:27.011Z,106.88
2023-05-21T05:11:27.029Z,106.88
2023-05-21T05:12:27.034Z,112.50
2023-05-21T05:13:26.999Z,112.50
2023-05-21T05:14:26.984Z,112.50
2023-05-21T05:15:26.983Z,118.12
2023-05-21T05:16:27.036Z,118.12
2023-05-21T05:17:27.019Z,118.12
2023-05-21T05:18:26.957Z,123.75
2023-05-21T05:19:27.077Z,123.75
2023-05-21T05:20:26.948Z,129.38
2023-05-21T05:21:26.953Z,129.38
2023-05-21T05:22:26.922Z,129.38
2023-05-21T05:23:26.937Z,129.38
2023-05-21T05:24:26.919Z,135.00
2023-05-21T05:25:26.913Z,135.00
2023-05-21T05:26:26.920Z,135.00
2023-05-21T05:27:26.890Z,135.00
2023-05-21T05:28:26.906Z,135.00
2023-05-21T05:29:26.881Z,135.00
2023-05-21T05:30:26.894Z,135.00
2023-05-21T05:31:26.985Z,135.00
2023-05-21T05:32:26.884Z,135.00
2023-05-21T05:33:26.836Z,135.00
2023-05-21T05:34:26.847Z,135.00
2023-05-21T05:35:26.843Z,135.00
2023-05-21T05:36:26.843Z,135.00
2023-05-21T05:37:26.823Z,140.62
2023-05-21T05:38:26.812Z,140.62
2023-05-21T05:39:26.805Z,140.62
2023-05-21T05:40:26.817Z,135.00
2023-05-21T05:41:26.807Z,135.00
2023-05-21T05:42:26.791Z,135.00
2023-05-21T05:43:26.771Z,135.00
2023-05-21T05:44:26.768Z,140.62
2023-05-21T05:45:26.798Z,140.62
2023-05-21T05:46:26.773Z,140.62
2023-05-21T05:47:26.790Z,140.62
2023-05-21T05:48:26.744Z,140.62
2023-05-21T05:49:26.726Z,140.62
2023-05-21T05:50:26.746Z,135.00
2023-05-21T05:51:26.714Z,135.00
2023-05-21T05:52:26.729Z,135.00
2023-05-21T05:53:26.696Z,135.00
2023-05-21T05:54:26.700Z,135.00
2023-05-21T05:55:26.738Z,135.00
2023-05-21T05:56:26.682Z,135.00
2023-05-21T05:57:26.693Z,135.00
2023-05-21T05:58:26.672Z,135.00
2023-05-21T05:59:26.669Z,135.00
2023-05-21T06:00:26.646Z,135.00
2023-05-21T06:01:26.668Z,135.00
2023-05-21T06:02:26.688Z,135.00
2023-05-21T06:03:26.753Z,135.00
2023-05-21T06:04:26.633Z,135.00
2023-05-21T06:05:26.643Z,135.00
2023-05-21T06:06:26.619Z,140.62
2023-05-21T06:07:26.605Z,140.62
2023-05-21T06:08:26.611Z,140.62
2023-05-21T06:09:26.612Z,146.25
2023-05-21T06:10:26.584Z,146.25
2023-05-21T06:11:26.605Z,151.88
2023-05-21T06:12:26.568Z,151.88
2023-05-21T06:13:26.572Z,157.50
2023-05-21T06:14:26.565Z,157.50
2023-05-21T06:15:26.576Z,157.50
2023-05-21T06:16:26.666Z,163.12
2023-05-21T06:17:26.588Z,163.12
2023-05-21T06:18:26.545Z,168.75
2023-05-21T06:19:26.609Z,168.75
2023-05-21T06:20:26.522Z,174.38
2023-05-21T06:21:26.538Z,174.38
2023-05-21T06:22:26.503Z,180.00
2023-05-21T06:23:26.499Z,180.00
2023-05-21T06:24:26.494Z,185.62
2023-05-21T06:25:26.506Z,191.25
2023-05-21T06:26:26.491Z,196.88
2023-05-21T06:27:26.474Z,202.50
2023-05-21T06:28:26.462Z,202.50
2023-05-21T06:29:26.483Z,202.50
2023-05-21T06:30:26.476Z,208.12
2023-05-21T06:31:26.472Z,208.12
2023-05-21T06:32:26.491Z,208.12
2023-05-21T06:33:26.550Z,208.12
2023-05-21T06:34:26.434Z,213.75
2023-05-21T06:35:26.425Z,219.38
2023-05-21T06:36:26.437Z,219.38
2023-05-21T06:37:26.815Z,225.00
2023-05-21T06:38:27.401Z,225.00
2023-05-21T06:39:26.395Z,225.00
2023-05-21T06:40:26.393Z,230.62
2023-05-21T06:41:26.384Z,230.62
2023-05-21T06:42:26.381Z,230.62
2023-05-21T06:43:26.381Z,236.25
2023-05-21T06:44:26.361Z,241.88
2023-05-21T06:45:26.381Z,247.50
2023-05-21T06:46:26.417Z,258.75
2023-05-21T06:47:26.367Z,253.12
2023-05-21T06:48:26.330Z,253.12
2023-05-21T06:49:26.324Z,270.00
2023-05-21T06:50:26.327Z,309.38
2023-05-21T06:51:27.345Z,286.88
2023-05-21T06:52:26.311Z,270.00
2023-05-21T06:53:26.335Z,270.00
2023-05-21T06:54:27.116Z,275.62
2023-05-21T06:55:27.288Z,275.62
2023-05-21T06:56:26.316Z,275.62
2023-05-21T06:57:26.287Z,275.62
2023-05-21T06:58:26.269Z,275.62
2023-05-21T06:59:26.260Z,281.25
2023-05-21T07:00:26.259Z,286.88
2023-05-21T07:01:26.379Z,286.88
2023-05-21T07:02:26.374Z,292.50
2023-05-21T07:03:26.307Z,298.12
2023-05-21T07:04:26.226Z,303.75
2023-05-21T07:05:26.235Z,315.00
2023-05-21T07:06:26.308Z,326.25
2023-05-21T07:07:26.223Z,331.88
2023-05-21T07:08:26.209Z,354.38
2023-05-21T07:09:26.221Z,348.75
2023-05-21T07:10:26.206Z,348.75
2023-05-21T07:11:26.248Z,365.62
2023-05-21T07:12:26.175Z,421.88
2023-05-21T07:13:26.178Z,405.00
2023-05-21T07:14:26.456Z,444.38
2023-05-21T07:15:26.162Z,399.38
2023-05-21T07:16:26.179Z,371.25
2023-05-21T07:17:26.161Z,376.88
2023-05-21T07:18:26.134Z,365.62
2023-05-21T07:19:26.185Z,360.00
2023-05-21T07:20:26.159Z,365.62
2023-05-21T07:21:26.115Z,371.25
2023-05-21T07:22:28.066Z,382.50
2023-05-21T07:23:27.116Z,399.38
2023-05-21T07:24:26.080Z,382.50
2023-05-21T07:25:26.118Z,393.75
2023-05-21T07:26:26.085Z,399.38
2023-05-21T07:27:26.430Z,393.75
2023-05-21T07:28:26.062Z,393.75
2023-05-21T07:29:26.058Z,399.38
2023-05-21T07:30:26.056Z,393.75
2023-05-21T07:31:26.110Z,388.12
2023-05-21T07:32:26.042Z,388.12
2023-05-21T07:33:26.031Z,393.75
2023-05-21T07:34:26.049Z,399.38
2023-05-21T07:35:26.021Z,416.25
2023-05-21T07:36:26.010Z,416.25
2023-05-21T07:37:26.049Z,421.88
2023-05-21T07:38:26.007Z,455.62
2023-05-21T07:39:25.986Z,461.25
2023-05-21T07:40:25.982Z,472.50
2023-05-21T07:41:25.999Z,517.50
2023-05-21T07:42:25.968Z,528.75
2023-05-21T07:43:25.960Z,579.38
2023-05-21T07:44:25.963Z,590.62
2023-05-21T07:45:25.955Z,551.25
2023-05-21T07:46:25.987Z,528.75
2023-05-21T07:47:26.034Z,511.88
2023-05-21T07:48:25.932Z,534.38
2023-05-21T07:49:25.928Z,528.75
2023-05-21T07:50:25.917Z,523.12
2023-05-21T07:51:25.962Z,573.75
2023-05-21T07:52:25.927Z,568.12
2023-05-21T07:53:25.893Z,568.12
2023-05-21T07:54:25.897Z,562.50
2023-05-21T07:55:25.916Z,579.38
2023-05-21T07:56:25.910Z,573.75
2023-05-21T07:57:25.879Z,500.62
2023-05-21T07:58:25.868Z,495.00
2023-05-21T07:59:25.873Z,495.00
2023-05-21T08:00:25.857Z,506.25
2023-05-21T08:01:25.894Z,556.88
2023-05-21T08:02:25.966Z,573.75
2023-05-21T08:03:25.923Z,658.12
2023-05-21T08:04:26.017Z,658.12
2023-05-21T08:05:25.852Z,697.50
2023-05-21T08:06:25.827Z,680.62
2023-05-21T08:07:25.822Z,703.12
2023-05-21T08:08:25.815Z,742.50
2023-05-21T08:09:25.824Z,1130.62
2023-05-21T08:10:25.803Z,1186.88
2023-05-21T08:11:26.433Z,1080.00
2023-05-21T08:12:25.800Z,1051.88
2023-05-21T08:13:26.010Z,798.75
2023-05-21T08:14:25.779Z,714.38
2023-05-21T08:15:25.777Z,680.62
2023-05-21T08:16:25.843Z,641.25
2023-05-21T08:17:25.789Z,630.00
2023-05-21T08:18:25.868Z,579.38
2023-05-21T08:19:25.804Z,596.25
2023-05-21T08:20:25.732Z,556.88
2023-05-21T08:21:25.726Z,534.38
2023-05-21T08:22:25.728Z,556.88
2023-05-21T08:23:25.717Z,573.75
2023-05-21T08:24:25.707Z,568.12
2023-05-21T08:25:25.697Z,545.62
2023-05-21T08:26:25.793Z,511.88
2023-05-21T08:27:25.855Z,483.75
2023-05-21T08:28:25.684Z,483.75
2023-05-21T08:29:25.674Z,511.88
2023-05-21T08:30:25.691Z,562.50
2023-05-21T08:31:25.688Z,590.62
2023-05-21T08:32:25.663Z,675.00
2023-05-21T08:33:25.671Z,635.62
2023-05-21T08:34:25.639Z,641.25
2023-05-21T08:35:25.634Z,669.38
2023-05-21T08:36:25.625Z,793.12
2023-05-21T08:37:25.618Z,759.38
2023-05-21T08:38:26.989Z,748.12
2023-05-21T08:39:25.614Z,658.12
2023-05-21T08:40:25.588Z,624.38
2023-05-21T08:41:25.589Z,613.12
2023-05-21T08:42:36.335Z,624.38
2023-05-21T08:43:27.599Z,601.88
2023-05-21T08:44:25.580Z,646.88
2023-05-21T08:45:25.575Z,618.75
2023-05-21T08:46:25.635Z,630.00
2023-05-21T08:47:25.578Z,562.50
2023-05-21T08:48:25.566Z,523.12
2023-05-21T08:49:27.163Z,517.50
2023-05-21T08:50:26.547Z,556.88
2023-05-21T08:51:25.545Z,585.00
2023-05-21T08:52:25.524Z,556.88
2023-05-21T08:53:28.729Z,528.75
2023-05-21T08:54:26.510Z,528.75
2023-05-21T08:55:25.515Z,528.75
2023-05-21T08:56:25.503Z,523.12
2023-05-21T08:57:25.510Z,523.12
2023-05-21T08:58:25.501Z,517.50
2023-05-21T08:59:25.489Z,523.12
2023-05-21T09:00:25.494Z,523.12
2023-05-21T09:01:26.651Z,534.38
2023-05-21T09:02:26.536Z,528.75
2023-05-21T09:03:25.518Z,528.75
2023-05-21T09:04:25.498Z,540.00
2023-05-21T09:05:25.449Z,551.25
2023-05-21T09:06:25.426Z,573.75
2023-05-21T09:07:25.426Z,601.88
2023-05-21T09:08:25.425Z,618.75
2023-05-21T09:09:25.418Z,630.00
2023-05-21T09:10:25.412Z,618.75
2023-05-21T09:11:25.405Z,630.00
2023-05-21T09:12:25.412Z,680.62
2023-05-21T09:13:25.400Z,765.00
2023-05-21T09:14:25.509Z,765.00
2023-05-21T09:15:25.424Z,781.88
2023-05-21T09:16:25.447Z,680.62
2023-05-21T09:17:25.440Z,686.25
2023-05-21T09:18:25.366Z,725.62
2023-05-21T09:19:25.410Z,675.00
2023-05-21T09:20:25.378Z,630.00
2023-05-21T09:21:25.360Z,613.12
2023-05-21T09:22:25.329Z,556.88
2023-05-21T09:23:25.340Z,540.00
2023-05-21T09:24:25.342Z,534.38
2023-05-21T09:25:25.352Z,534.38
2023-05-21T09:26:25.329Z,523.12
2023-05-21T09:27:25.301Z,534.38
2023-05-21T09:28:25.300Z,545.62
2023-05-21T09:29:25.292Z,545.62
2023-05-21T09:30:35.714Z,545.62
2023-05-21T09:31:27.418Z,551.25
2023-05-21T09:32:25.312Z,568.12
2023-05-21T09:33:25.259Z,573.75
2023-05-21T09:34:25.290Z,556.88
2023-05-21T09:35:25.256Z,556.88
2023-05-21T09:36:25.253Z,556.88
2023-05-21T09:37:27.639Z,562.50
2023-05-21T09:38:26.259Z,551.25
2023-05-21T09:39:25.240Z,556.88
2023-05-21T09:40:25.246Z,562.50
2023-05-21T09:41:25.241Z,568.12
2023-05-21T09:42:25.210Z,562.50
2023-05-21T09:43:25.210Z,568.12
2023-05-21T09:44:25.209Z,562.50
2023-05-21T09:45:25.485Z,568.12
2023-05-21T09:46:25.204Z,562.50
2023-05-21T09:47:25.206Z,585.00
2023-05-21T09:48:25.189Z,607.50
2023-05-21T09:49:25.237Z,630.00
2023-05-21T09:50:25.172Z,646.88
2023-05-21T09:51:25.164Z,613.12
2023-05-21T09:52:25.150Z,579.38
2023-05-21T09:53:25.174Z,579.38
2023-05-21T09:54:25.170Z,590.62
2023-05-21T09:55:25.141Z,613.12
2023-05-21T09:56:25.125Z,630.00
2023-05-21T09:57:25.959Z,658.12
2023-05-21T09:58:25.123Z,675.00
2023-05-21T09:59:25.147Z,686.25
2023-05-21T10:00:25.124Z,680.62
2023-05-21T10:01:25.222Z,658.12
2023-05-21T10:02:25.118Z,669.38
2023-05-21T10:03:25.098Z,630.00
2023-05-21T10:05:25.088Z,568.12
2023-05-21T10:06:25.071Z,568.12
2023-05-21T10:07:25.068Z,562.50
2023-05-21T10:08:25.062Z,568.12
2023-05-21T10:09:25.084Z,596.25
2023-05-21T10:10:25.088Z,607.50
2023-05-21T10:11:25.036Z,613.12
2023-05-21T10:12:25.031Z,646.88
2023-05-21T10:13:25.038Z,624.38
2023-05-21T10:14:25.043Z,675.00
2023-05-21T10:15:25.024Z,714.38
2023-05-21T10:16:25.042Z,714.38
2023-05-21T10:17:25.040Z,759.38
2023-05-21T10:18:24.989Z,748.12
2023-05-21T10:19:25.762Z,708.75
2023-05-21T10:20:24.999Z,708.75
2023-05-21T10:21:24.984Z,675.00
2023-05-21T10:22:24.968Z,663.75
2023-05-21T10:23:24.956Z,675.00
2023-05-21T10:24:24.961Z,663.75
2023-05-21T10:25:24.979Z,646.88
2023-05-21T10:26:24.945Z,658.12
2023-05-21T10:27:24.944Z,691.88
2023-05-21T10:28:24.924Z,708.75
2023-05-21T10:29:24.925Z,691.88
2023-05-21T10:30:24.919Z,675.00
2023-05-21T10:31:25.272Z,658.12
2023-05-21T10:32:25.021Z,680.62
2023-05-21T10:33:24.958Z,697.50
2023-05-21T10:34:24.891Z,703.12
2023-05-21T10:35:24.900Z,742.50
2023-05-21T10:36:24.885Z,753.75
2023-05-21T10:37:24.870Z,776.25
2023-05-21T10:38:24.903Z,787.50
2023-05-21T10:39:24.863Z,793.12
2023-05-21T10:40:24.852Z,826.88
2023-05-21T10:41:24.885Z,838.12
2023-05-21T10:42:24.862Z,871.88
2023-05-21T10:43:24.847Z,883.12
2023-05-21T10:44:24.850Z,888.75
2023-05-21T10:45:24.843Z,855.00
2023-05-21T10:46:24.853Z,877.50
2023-05-21T10:47:24.824Z,759.38
2023-05-21T10:48:24.818Z,770.62
2023-05-21T10:49:24.815Z,781.88
2023-05-21T10:50:24.796Z,742.50
2023-05-21T10:51:24.799Z,793.12
2023-05-21T10:52:24.802Z,731.25
2023-05-21T10:53:24.797Z,748.12
2023-05-21T10:54:24.794Z,793.12
2023-05-21T10:55:24.768Z,742.50
2023-05-21T10:56:24.771Z,714.38
2023-05-21T10:57:24.759Z,675.00
2023-05-21T10:58:24.753Z,669.38
2023-05-21T10:59:24.770Z,641.25
2023-05-21T11:00:24.737Z,686.25
2023-05-21T11:01:24.827Z,680.62
2023-05-21T11:02:24.766Z,697.50
2023-05-21T11:03:24.939Z,697.50
2023-05-21T11:04:24.725Z,697.50
2023-05-21T11:05:24.695Z,691.88
2023-05-21T11:06:24.716Z,675.00
2023-05-21T11:07:24.738Z,680.62
2023-05-21T11:08:24.683Z,680.62
2023-05-21T11:09:24.683Z,686.25
2023-05-21T11:10:24.693Z,691.88
2023-05-21T11:11:24.667Z,697.50
2023-05-21T11:12:24.663Z,708.75
2023-05-21T11:13:24.680Z,703.12
2023-05-21T11:14:24.656Z,691.88
2023-05-21T11:15:24.730Z,663.75
2023-05-21T11:16:24.689Z,658.12
2023-05-21T11:17:24.650Z,646.88
2023-05-21T11:18:24.616Z,624.38
2023-05-21T11:19:24.643Z,635.62
2023-05-21T11:20:24.623Z,624.38
2023-05-21T11:21:24.600Z,618.75
2023-05-21T11:22:24.615Z,613.12
2023-05-21T11:23:24.591Z,601.88
2023-05-21T11:24:24.579Z,590.62
2023-05-21T11:25:24.584Z,585.00
2023-05-21T11:26:24.571Z,579.38
2023-05-21T11:27:24.559Z,579.38
2023-05-21T11:28:24.554Z,568.12
2023-05-21T11:29:24.558Z,562.50
2023-05-21T11:30:24.555Z,551.25
2023-05-21T11:31:24.577Z,540.00
2023-05-21T11:32:24.551Z,534.38
2023-05-21T11:33:24.532Z,523.12
2023-05-21T11:34:24.531Z,528.75
2023-05-21T11:35:24.518Z,528.75
2023-05-21T11:36:24.539Z,528.75
2023-05-21T11:37:24.515Z,528.75
2023-05-21T11:38:24.495Z,534.38
2023-05-21T11:39:24.492Z,540.00
2023-05-21T11:40:24.489Z,556.88
2023-05-21T11:41:24.483Z,568.12
2023-05-21T11:42:24.476Z,573.75
2023-05-21T11:43:24.471Z,579.38
2023-05-21T11:44:24.463Z,596.25
2023-05-21T11:45:24.481Z,618.75
2023-05-21T11:46:24.497Z,635.62
2023-05-21T11:47:24.511Z,646.88
2023-05-21T11:48:26.886Z,641.25
2023-05-21T11:49:24.431Z,646.88
2023-05-21T11:50:24.422Z,652.50
2023-05-21T11:51:24.423Z,652.50
2023-05-21T11:52:24.420Z,669.38
2023-05-21T11:53:24.458Z,675.00
2023-05-21T11:54:24.506Z,663.75
2023-05-21T11:55:24.403Z,652.50
2023-05-21T11:56:24.466Z,641.25
2023-05-21T11:57:24.398Z,641.25
2023-05-21T11:58:24.393Z,630.00
2023-05-21T11:59:24.403Z,618.75
2023-05-21T12:00:24.385Z,601.88
2023-05-21T12:01:24.356Z,585.00
2023-05-21T12:02:25.359Z,585.00
2023-05-21T12:03:24.444Z,579.38
2023-05-21T12:04:24.377Z,585.00
2023-05-21T12:05:24.366Z,579.38
2023-05-21T12:06:24.385Z,573.75
2023-05-21T12:07:24.333Z,573.75
2023-05-21T12:08:24.312Z,573.75
2023-05-21T12:09:24.323Z,562.50
2023-05-21T12:10:24.539Z,556.88
2023-05-21T12:11:24.291Z,551.25
2023-05-21T12:12:24.305Z,545.62
2023-05-21T12:13:24.294Z,545.62
2023-05-21T12:14:24.342Z,540.00
2023-05-21T12:15:24.362Z,534.38
2023-05-21T12:16:24.319Z,523.12
2023-05-21T12:17:24.310Z,523.12
2023-05-21T12:18:24.259Z,511.88
2023-05-21T12:19:24.322Z,511.88
2023-05-21T12:20:24.293Z,511.88
2023-05-21T12:21:24.252Z,517.50
2023-05-21T12:22:24.247Z,540.00
2023-05-21T12:23:24.237Z,551.25
2023-05-21T12:24:24.244Z,551.25
2023-05-21T12:25:24.227Z,556.88
2023-05-21T12:26:24.236Z,562.50
2023-05-21T12:27:24.216Z,573.75
2023-05-21T12:28:24.209Z,590.62
2023-05-21T12:29:24.209Z,596.25
2023-05-21T12:30:24.208Z,596.25
2023-05-21T12:31:24.215Z,607.50
2023-05-21T12:32:24.203Z,607.50
2023-05-21T12:33:25.263Z,601.88
2023-05-21T12:34:25.169Z,596.25
2023-05-21T12:35:24.685Z,585.00
2023-05-21T12:36:24.156Z,562.50
2023-05-21T12:37:24.162Z,551.25
2023-05-21T12:38:24.392Z,545.62
2023-05-21T12:39:24.153Z,534.38
2023-05-21T12:40:24.147Z,517.50
2023-05-21T12:41:24.131Z,506.25
2023-05-21T12:42:24.139Z,495.00
2023-05-21T12:43:24.147Z,472.50
2023-05-21T12:44:24.116Z,455.62
2023-05-21T12:45:24.123Z,450.00
2023-05-21T12:46:24.121Z,478.12